sensor_id;sensor_type;location;lat;lon;timestamp;P1;durP1;ratioP1;P2;durP2;ratioP2
53040;SDS011;39326;42.650;23.248;2023-07-08T00:00:51;16.90;;;15.40;;
53040;SDS011;39326;42.650;23.248;2023-07-08T00:03:18;17.67;;;16.25;;
53040;SDS011;39326;42.650;23.248;2023-07-08T00:05:46;16.13;;;14.75;;
53040;SDS011;39326;42.650;23.248;2023-07-08T00:08:20;18.35;;;16.83;;
53040;SDS011;39326;42.650;23.248;2023-07-08T00:10:46;18.20;;;16.80;;
53040;SDS011;39326;42.650;23.248;2023-07-08T00:13:12;17.13;;;15.70;;
53040;SDS011;39326;42.650;23.248;2023-07-08T00:15:38;17.60;;;16.30;;
53040;SDS011;39326;42.650;23.248;2023-07-08T00:18:15;18.23;;;16.67;;
53040;SDS011;39326;42.650;23.248;2023-07-08T00:20:46;14.25;;;12.95;;
53040;SDS011;39326;42.650;23.248;2023-07-08T00:23:13;18.23;;;16.73;;
53040;SDS011;39326;42.650;23.248;2023-07-08T00:25:40;18.40;;;16.95;;
53040;SDS011;39326;42.650;23.248;2023-07-08T00:28:10;17.63;;;16.23;;
53040;SDS011;39326;42.650;23.248;2023-07-08T00:30:44;18.08;;;16.60;;
53040;SDS011;39326;42.650;23.248;2023-07-08T00:33:10;18.02;;;16.80;;
53040;SDS011;39326;42.650;23.248;2023-07-08T00:35:37;18.30;;;16.80;;
53040;SDS011;39326;42.650;23.248;2023-07-08T00:40:48;17.30;;;15.90;;
53040;SDS011;39326;42.650;23.248;2023-07-08T00:43:17;16.25;;;14.93;;
53040;SDS011;39326;42.650;23.248;2023-07-08T00:45:48;15.52;;;14.32;;
53040;SDS011;39326;42.650;23.248;2023-07-08T00:50:53;16.83;;;15.38;;
53040;SDS011;39326;42.650;23.248;2023-07-08T00:55:48;16.35;;;14.68;;
53040;SDS011;39326;42.650;23.248;2023-07-08T00:58:15;16.20;;;15.00;;
53040;SDS011;39326;42.650;23.248;2023-07-08T01:00:44;16.48;;;15.13;;
53040;SDS011;39326;42.650;23.248;2023-07-08T01:03:10;16.80;;;15.38;;
53040;SDS011;39326;42.650;23.248;2023-07-08T01:05:35;17.23;;;15.57;;
53040;SDS011;39326;42.650;23.248;2023-07-08T01:08:04;14.63;;;13.32;;
53040;SDS011;39326;42.650;23.248;2023-07-08T01:10:39;15.88;;;14.63;;
53040;SDS011;39326;42.650;23.248;2023-07-08T01:13:11;16.38;;;15.18;;
53040;SDS011;39326;42.650;23.248;2023-07-08T01:15:41;16.30;;;15.13;;
53040;SDS011;39326;42.650;23.248;2023-07-08T01:18:09;15.82;;;14.55;;
53040;SDS011;39326;42.650;23.248;2023-07-08T01:20:41;15.43;;;13.85;;
53040;SDS011;39326;42.650;23.248;2023-07-08T01:23:09;16.75;;;15.35;;
53040;SDS011;39326;42.650;23.248;2023-07-08T01:25:36;17.02;;;15.63;;
53040;SDS011;39326;42.650;23.248;2023-07-08T01:28:02;14.90;;;13.82;;
53040;SDS011;39326;42.650;23.248;2023-07-08T01:30:29;16.65;;;15.35;;
53040;SDS011;39326;42.650;23.248;2023-07-08T01:33:03;15.52;;;14.30;;
53040;SDS011;39326;42.650;23.248;2023-07-08T01:35:32;16.05;;;14.88;;
53040;SDS011;39326;42.650;23.248;2023-07-08T01:37:59;15.80;;;14.63;;
53040;SDS011;39326;42.650;23.248;2023-07-08T01:40:29;15.32;;;14.07;;
53040;SDS011;39326;42.650;23.248;2023-07-08T01:42:57;16.38;;;14.98;;
53040;SDS011;39326;42.650;23.248;2023-07-08T01:45:25;15.70;;;14.32;;
53040;SDS011;39326;42.650;23.248;2023-07-08T01:48:12;14.80;;;13.70;;
53040;SDS011;39326;42.650;23.248;2023-07-08T01:50:42;14.65;;;13.55;;
53040;SDS011;39326;42.650;23.248;2023-07-08T01:53:18;14.85;;;13.65;;
53040;SDS011;39326;42.650;23.248;2023-07-08T01:55:46;14.65;;;13.40;;
53040;SDS011;39326;42.650;23.248;2023-07-08T01:58:12;14.32;;;13.05;;
53040;SDS011;39326;42.650;23.248;2023-07-08T02:00:38;15.60;;;14.25;;
53040;SDS011;39326;42.650;23.248;2023-07-08T02:03:04;14.25;;;13.13;;
53040;SDS011;39326;42.650;23.248;2023-07-08T02:05:30;14.95;;;13.82;;
53040;SDS011;39326;42.650;23.248;2023-07-08T02:07:55;15.13;;;13.82;;
53040;SDS011;39326;42.650;23.248;2023-07-08T02:10:21;14.85;;;13.55;;
53040;SDS011;39326;42.650;23.248;2023-07-08T02:12:47;14.40;;;13.27;;
53040;SDS011;39326;42.650;23.248;2023-07-08T02:15:12;15.23;;;14.02;;
53040;SDS011;39326;42.650;23.248;2023-07-08T02:17:38;15.38;;;14.18;;
53040;SDS011;39326;42.650;23.248;2023-07-08T02:20:04;15.07;;;13.77;;
53040;SDS011;39326;42.650;23.248;2023-07-08T02:22:30;15.18;;;13.88;;
53040;SDS011;39326;42.650;23.248;2023-07-08T02:24:56;13.05;;;12.15;;
53040;SDS011;39326;42.650;23.248;2023-07-08T02:27:21;14.35;;;13.25;;
53040;SDS011;39326;42.650;23.248;2023-07-08T02:29:47;15.20;;;13.90;;
53040;SDS011;39326;42.650;23.248;2023-07-08T02:32:13;14.30;;;13.20;;
53040;SDS011;39326;42.650;23.248;2023-07-08T02:34:38;14.35;;;13.35;;
53040;SDS011;39326;42.650;23.248;2023-07-08T02:37:04;14.50;;;13.30;;
53040;SDS011;39326;42.650;23.248;2023-07-08T02:39:29;14.10;;;12.98;;
53040;SDS011;39326;42.650;23.248;2023-07-08T02:41:55;14.02;;;13.02;;
53040;SDS011;39326;42.650;23.248;2023-07-08T02:44:21;13.45;;;12.45;;
53040;SDS011;39326;42.650;23.248;2023-07-08T02:46:48;14.13;;;12.93;;
53040;SDS011;39326;42.650;23.248;2023-07-08T02:49:14;13.52;;;12.48;;
53040;SDS011;39326;42.650;23.248;2023-07-08T02:51:39;14.68;;;13.57;;
53040;SDS011;39326;42.650;23.248;2023-07-08T02:54:05;12.70;;;11.70;;
53040;SDS011;39326;42.650;23.248;2023-07-08T02:56:31;13.18;;;11.98;;
53040;SDS011;39326;42.650;23.248;2023-07-08T02:58:57;13.38;;;12.38;;
53040;SDS011;39326;42.650;23.248;2023-07-08T03:01:23;13.32;;;12.23;;
53040;SDS011;39326;42.650;23.248;2023-07-08T03:03:48;12.77;;;11.77;;
53040;SDS011;39326;42.650;23.248;2023-07-08T03:06:15;13.93;;;12.82;;
53040;SDS011;39326;42.650;23.248;2023-07-08T03:08:41;11.83;;;10.93;;
53040;SDS011;39326;42.650;23.248;2023-07-08T03:11:07;12.88;;;11.77;;
53040;SDS011;39326;42.650;23.248;2023-07-08T03:13:34;12.82;;;11.73;;
53040;SDS011;39326;42.650;23.248;2023-07-08T03:16:00;11.90;;;10.90;;
53040;SDS011;39326;42.650;23.248;2023-07-08T03:18:27;12.50;;;11.30;;
53040;SDS011;39326;42.650;23.248;2023-07-08T03:20:54;12.00;;;11.00;;
53040;SDS011;39326;42.650;23.248;2023-07-08T03:23:21;12.27;;;11.30;;
53040;SDS011;39326;42.650;23.248;2023-07-08T03:25:47;10.70;;;9.90;;
53040;SDS011;39326;42.650;23.248;2023-07-08T03:28:13;11.05;;;10.02;;
53040;SDS011;39326;42.650;23.248;2023-07-08T03:30:43;10.73;;;9.93;;
53040;SDS011;39326;42.650;23.248;2023-07-08T03:33:10;10.80;;;9.87;;
53040;SDS011;39326;42.650;23.248;2023-07-08T03:35:36;10.40;;;9.68;;
53040;SDS011;39326;42.650;23.248;2023-07-08T03:38:03;10.77;;;10.03;;
53040;SDS011;39326;42.650;23.248;2023-07-08T03:40:29;9.77;;;9.07;;
53040;SDS011;39326;42.650;23.248;2023-07-08T03:42:55;11.52;;;10.40;;
53040;SDS011;39326;42.650;23.248;2023-07-08T03:45:20;10.88;;;9.90;;
53040;SDS011;39326;42.650;23.248;2023-07-08T03:47:46;10.23;;;9.50;;
53040;SDS011;39326;42.650;23.248;2023-07-08T03:50:22;10.27;;;9.35;;
53040;SDS011;39326;42.650;23.248;2023-07-08T03:52:50;9.35;;;8.55;;
53040;SDS011;39326;42.650;23.248;2023-07-08T03:55:17;8.98;;;8.18;;
53040;SDS011;39326;42.650;23.248;2023-07-08T03:57:44;9.13;;;8.45;;
53040;SDS011;39326;42.650;23.248;2023-07-08T04:00:10;9.32;;;8.52;;
53040;SDS011;39326;42.650;23.248;2023-07-08T04:02:40;8.90;;;8.05;;
53040;SDS011;39326;42.650;23.248;2023-07-08T04:05:06;9.60;;;8.75;;
53040;SDS011;39326;42.650;23.248;2023-07-08T04:07:39;9.70;;;8.93;;
53040;SDS011;39326;42.650;23.248;2023-07-08T04:10:04;9.05;;;8.35;;
53040;SDS011;39326;42.650;23.248;2023-07-08T04:12:31;9.05;;;8.35;;
53040;SDS011;39326;42.650;23.248;2023-07-08T04:14:56;9.13;;;8.45;;
53040;SDS011;39326;42.650;23.248;2023-07-08T04:17:22;8.68;;;7.97;;
53040;SDS011;39326;42.650;23.248;2023-07-08T04:19:48;9.40;;;8.68;;
53040;SDS011;39326;42.650;23.248;2023-07-08T04:22:15;8.90;;;8.13;;
53040;SDS011;39326;42.650;23.248;2023-07-08T04:24:40;10.25;;;9.32;;
53040;SDS011;39326;42.650;23.248;2023-07-08T04:27:08;10.23;;;9.30;;
53040;SDS011;39326;42.650;23.248;2023-07-08T04:29:38;9.85;;;8.95;;
53040;SDS011;39326;42.650;23.248;2023-07-08T04:32:04;9.80;;;8.90;;
53040;SDS011;39326;42.650;23.248;2023-07-08T04:34:30;9.63;;;8.85;;
53040;SDS011;39326;42.650;23.248;2023-07-08T04:36:56;9.85;;;9.02;;
53040;SDS011;39326;42.650;23.248;2023-07-08T04:39:21;9.32;;;8.55;;
53040;SDS011;39326;42.650;23.248;2023-07-08T04:41:47;9.57;;;8.88;;
53040;SDS011;39326;42.650;23.248;2023-07-08T04:44:13;9.73;;;8.95;;
53040;SDS011;39326;42.650;23.248;2023-07-08T04:46:45;9.88;;;9.10;;
53040;SDS011;39326;42.650;23.248;2023-07-08T04:49:16;9.25;;;8.52;;
53040;SDS011;39326;42.650;23.248;2023-07-08T04:51:42;9.20;;;8.40;;
53040;SDS011;39326;42.650;23.248;2023-07-08T04:54:09;9.15;;;8.43;;
53040;SDS011;39326;42.650;23.248;2023-07-08T04:59:02;9.40;;;8.48;;
53040;SDS011;39326;42.650;23.248;2023-07-08T05:01:28;8.73;;;7.97;;
53040;SDS011;39326;42.650;23.248;2023-07-08T05:03:54;8.82;;;8.18;;
53040;SDS011;39326;42.650;23.248;2023-07-08T05:06:20;8.73;;;7.93;;
53040;SDS011;39326;42.650;23.248;2023-07-08T05:08:46;9.18;;;8.30;;
53040;SDS011;39326;42.650;23.248;2023-07-08T05:11:11;8.30;;;7.57;;
53040;SDS011;39326;42.650;23.248;2023-07-08T05:13:37;8.68;;;7.97;;
53040;SDS011;39326;42.650;23.248;2023-07-08T05:16:03;8.77;;;7.85;;
53040;SDS011;39326;42.650;23.248;2023-07-08T05:18:29;8.95;;;8.18;;
53040;SDS011;39326;42.650;23.248;2023-07-08T05:20:55;8.45;;;7.70;;
53040;SDS011;39326;42.650;23.248;2023-07-08T05:23:21;7.60;;;7.07;;
53040;SDS011;39326;42.650;23.248;2023-07-08T05:25:47;7.57;;;6.88;;
53040;SDS011;39326;42.650;23.248;2023-07-08T05:28:13;8.38;;;7.00;;
53040;SDS011;39326;42.650;23.248;2023-07-08T05:30:42;8.20;;;7.35;;
53040;SDS011;39326;42.650;23.248;2023-07-08T05:33:08;7.13;;;6.47;;
53040;SDS011;39326;42.650;23.248;2023-07-08T05:35:34;7.32;;;6.72;;
53040;SDS011;39326;42.650;23.248;2023-07-08T05:38:00;7.88;;;7.28;;
53040;SDS011;39326;42.650;23.248;2023-07-08T05:40:26;7.72;;;7.13;;
53040;SDS011;39326;42.650;23.248;2023-07-08T05:42:52;7.38;;;6.68;;
53040;SDS011;39326;42.650;23.248;2023-07-08T05:45:18;7.13;;;6.53;;
53040;SDS011;39326;42.650;23.248;2023-07-08T05:47:43;7.32;;;6.72;;
53040;SDS011;39326;42.650;23.248;2023-07-08T05:50:09;7.90;;;7.30;;
53040;SDS011;39326;42.650;23.248;2023-07-08T05:52:34;8.13;;;7.32;;
53040;SDS011;39326;42.650;23.248;2023-07-08T05:55:00;7.63;;;6.93;;
53040;SDS011;39326;42.650;23.248;2023-07-08T05:57:26;7.05;;;6.55;;
53040;SDS011;39326;42.650;23.248;2023-07-08T05:59:51;7.78;;;6.90;;
53040;SDS011;39326;42.650;23.248;2023-07-08T06:02:18;6.15;;;5.75;;
53040;SDS011;39326;42.650;23.248;2023-07-08T06:04:47;7.28;;;6.65;;
53040;SDS011;39326;42.650;23.248;2023-07-08T06:07:12;7.68;;;7.07;;
53040;SDS011;39326;42.650;23.248;2023-07-08T06:09:38;7.15;;;6.63;;
53040;SDS011;39326;42.650;23.248;2023-07-08T06:12:04;7.82;;;7.13;;
53040;SDS011;39326;42.650;23.248;2023-07-08T06:14:30;8.18;;;7.57;;
53040;SDS011;39326;42.650;23.248;2023-07-08T06:16:57;8.32;;;7.68;;
53040;SDS011;39326;42.650;23.248;2023-07-08T06:19:23;8.02;;;7.32;;
53040;SDS011;39326;42.650;23.248;2023-07-08T06:21:48;8.30;;;7.40;;
53040;SDS011;39326;42.650;23.248;2023-07-08T06:24:14;7.50;;;6.78;;
53040;SDS011;39326;42.650;23.248;2023-07-08T06:26:40;7.03;;;6.43;;
53040;SDS011;39326;42.650;23.248;2023-07-08T06:29:06;7.45;;;6.85;;
53040;SDS011;39326;42.650;23.248;2023-07-08T06:31:32;8.60;;;7.85;;
53040;SDS011;39326;42.650;23.248;2023-07-08T06:33:58;7.32;;;6.80;;
53040;SDS011;39326;42.650;23.248;2023-07-08T06:36:25;7.05;;;6.45;;
53040;SDS011;39326;42.650;23.248;2023-07-08T06:38:50;7.63;;;6.93;;
53040;SDS011;39326;42.650;23.248;2023-07-08T06:41:16;8.30;;;7.60;;
53040;SDS011;39326;42.650;23.248;2023-07-08T06:43:41;8.93;;;8.15;;
53040;SDS011;39326;42.650;23.248;2023-07-08T06:46:07;8.20;;;7.50;;
53040;SDS011;39326;42.650;23.248;2023-07-08T06:48:33;8.05;;;7.25;;
53040;SDS011;39326;42.650;23.248;2023-07-08T06:50:58;8.43;;;7.72;;
53040;SDS011;39326;42.650;23.248;2023-07-08T06:53:24;8.27;;;7.55;;
53040;SDS011;39326;42.650;23.248;2023-07-08T06:55:50;9.32;;;8.13;;
53040;SDS011;39326;42.650;23.248;2023-07-08T06:58:16;8.68;;;8.00;;
53040;SDS011;39326;42.650;23.248;2023-07-08T07:00:42;8.93;;;8.30;;
53040;SDS011;39326;42.650;23.248;2023-07-08T07:03:09;9.60;;;8.75;;
53040;SDS011;39326;42.650;23.248;2023-07-08T07:05:34;9.10;;;8.27;;
53040;SDS011;39326;42.650;23.248;2023-07-08T07:08:00;9.02;;;8.13;;
53040;SDS011;39326;42.650;23.248;2023-07-08T07:10:26;10.60;;;8.82;;
53040;SDS011;39326;42.650;23.248;2023-07-08T07:12:52;10.82;;;9.82;;
53040;SDS011;39326;42.650;23.248;2023-07-08T07:15:18;9.45;;;8.75;;
53040;SDS011;39326;42.650;23.248;2023-07-08T07:17:44;9.73;;;7.82;;
53040;SDS011;39326;42.650;23.248;2023-07-08T07:20:10;8.27;;;7.65;;
53040;SDS011;39326;42.650;23.248;2023-07-08T07:22:36;8.55;;;7.72;;
53040;SDS011;39326;42.650;23.248;2023-07-08T07:25:02;9.30;;;8.40;;
53040;SDS011;39326;42.650;23.248;2023-07-08T07:27:28;9.18;;;8.20;;
53040;SDS011;39326;42.650;23.248;2023-07-08T07:29:53;9.40;;;8.50;;
53040;SDS011;39326;42.650;23.248;2023-07-08T07:32:22;9.15;;;8.35;;
53040;SDS011;39326;42.650;23.248;2023-07-08T07:34:48;9.43;;;8.63;;
53040;SDS011;39326;42.650;23.248;2023-07-08T07:37:15;8.75;;;8.10;;
53040;SDS011;39326;42.650;23.248;2023-07-08T07:39:43;8.45;;;7.70;;
53040;SDS011;39326;42.650;23.248;2023-07-08T07:42:09;7.55;;;7.05;;
53040;SDS011;39326;42.650;23.248;2023-07-08T07:44:36;7.90;;;7.07;;
53040;SDS011;39326;42.650;23.248;2023-07-08T07:47:02;8.38;;;7.00;;
53040;SDS011;39326;42.650;23.248;2023-07-08T07:49:28;7.13;;;6.53;;
53040;SDS011;39326;42.650;23.248;2023-07-08T07:51:54;7.88;;;7.20;;
53040;SDS011;39326;42.650;23.248;2023-07-08T07:54:20;8.02;;;7.15;;
53040;SDS011;39326;42.650;23.248;2023-07-08T07:56:46;7.00;;;6.40;;
53040;SDS011;39326;42.650;23.248;2023-07-08T07:59:12;7.72;;;6.43;;
53040;SDS011;39326;42.650;23.248;2023-07-08T08:01:37;7.45;;;6.72;;
53040;SDS011;39326;42.650;23.248;2023-07-08T08:04:03;7.95;;;7.18;;
53040;SDS011;39326;42.650;23.248;2023-07-08T08:06:29;7.28;;;6.65;;
53040;SDS011;39326;42.650;23.248;2023-07-08T08:08:55;6.93;;;6.32;;
53040;SDS011;39326;42.650;23.248;2023-07-08T08:11:22;7.18;;;6.57;;
53040;SDS011;39326;42.650;23.248;2023-07-08T08:13:50;7.45;;;6.72;;
53040;SDS011;39326;42.650;23.248;2023-07-08T08:16:17;7.07;;;6.57;;
53040;SDS011;39326;42.650;23.248;2023-07-08T08:18:42;7.63;;;6.93;;
53040;SDS011;39326;42.650;23.248;2023-07-08T08:21:08;7.72;;;7.13;;
53040;SDS011;39326;42.650;23.248;2023-07-08T08:23:34;7.28;;;6.78;;
53040;SDS011;39326;42.650;23.248;2023-07-08T08:25:59;7.32;;;6.72;;
53040;SDS011;39326;42.650;23.248;2023-07-08T08:28:25;6.70;;;6.20;;
53040;SDS011;39326;42.650;23.248;2023-07-08T08:30:51;7.50;;;6.80;;
53040;SDS011;39326;42.650;23.248;2023-07-08T08:33:16;7.10;;;6.60;;
53040;SDS011;39326;42.650;23.248;2023-07-08T08:35:43;7.65;;;6.95;;
53040;SDS011;39326;42.650;23.248;2023-07-08T08:38:10;8.30;;;7.55;;
53040;SDS011;39326;42.650;23.248;2023-07-08T08:40:36;6.82;;;6.20;;
53040;SDS011;39326;42.650;23.248;2023-07-08T08:45:48;6.60;;;5.70;;
53040;SDS011;39326;42.650;23.248;2023-07-08T08:48:16;5.75;;;5.35;;
53040;SDS011;39326;42.650;23.248;2023-07-08T08:50:55;6.72;;;6.13;;
53040;SDS011;39326;42.650;23.248;2023-07-08T08:53:25;6.32;;;5.93;;
53040;SDS011;39326;42.650;23.248;2023-07-08T08:56:14;7.32;;;6.72;;
53040;SDS011;39326;42.650;23.248;2023-07-08T08:58:45;6.65;;;6.25;;
53040;SDS011;39326;42.650;23.248;2023-07-08T09:01:20;6.53;;;5.90;;
53040;SDS011;39326;42.650;23.248;2023-07-08T09:06:26;6.90;;;6.30;;
53040;SDS011;39326;42.650;23.248;2023-07-08T09:08:54;6.55;;;5.95;;
53040;SDS011;39326;42.650;23.248;2023-07-08T09:11:27;6.57;;;5.50;;
53040;SDS011;39326;42.650;23.248;2023-07-08T09:13:58;6.88;;;6.22;;
53040;SDS011;39326;42.650;23.248;2023-07-08T09:19:07;7.00;;;6.40;;
53040;SDS011;39326;42.650;23.248;2023-07-08T09:21:40;6.13;;;5.72;;
53040;SDS011;39326;42.650;23.248;2023-07-08T09:24:23;6.53;;;6.03;;
53040;SDS011;39326;42.650;23.248;2023-07-08T09:27:09;6.82;;;6.32;;
53040;SDS011;39326;42.650;23.248;2023-07-08T09:29:35;5.82;;;5.43;;
53040;SDS011;39326;42.650;23.248;2023-07-08T09:32:21;6.40;;;6.00;;
53040;SDS011;39326;42.650;23.248;2023-07-08T09:34:52;6.47;;;5.90;;
53040;SDS011;39326;42.650;23.248;2023-07-08T09:39:51;6.35;;;5.85;;
53040;SDS011;39326;42.650;23.248;2023-07-08T09:42:17;6.25;;;5.75;;
53040;SDS011;39326;42.650;23.248;2023-07-08T09:44:44;6.38;;;5.85;;
53040;SDS011;39326;42.650;23.248;2023-07-08T09:47:21;6.20;;;5.80;;
53040;SDS011;39326;42.650;23.248;2023-07-08T09:49:54;6.00;;;5.45;;
53040;SDS011;39326;42.650;23.248;2023-07-08T09:52:19;6.03;;;5.50;;
53040;SDS011;39326;42.650;23.248;2023-07-08T09:54:45;6.30;;;5.80;;
53040;SDS011;39326;42.650;23.248;2023-07-08T09:57:17;5.72;;;5.22;;
53040;SDS011;39326;42.650;23.248;2023-07-08T09:59:52;10.13;;;9.32;;
53040;SDS011;39326;42.650;23.248;2023-07-08T10:04:59;8.25;;;7.65;;
53040;SDS011;39326;42.650;23.248;2023-07-08T10:07:30;6.13;;;5.63;;
53040;SDS011;39326;42.650;23.248;2023-07-08T10:09:58;6.38;;;5.78;;
53040;SDS011;39326;42.650;23.248;2023-07-08T10:12:27;12.10;;;11.20;;
53040;SDS011;39326;42.650;23.248;2023-07-08T10:14:59;8.05;;;7.50;;
53040;SDS011;39326;42.650;23.248;2023-07-08T10:17:31;6.82;;;6.22;;
53040;SDS011;39326;42.650;23.248;2023-07-08T10:19:57;11.85;;;10.98;;
53040;SDS011;39326;42.650;23.248;2023-07-08T10:22:38;9.00;;;8.25;;
53040;SDS011;39326;42.650;23.248;2023-07-08T10:28:25;6.18;;;5.57;;
53040;SDS011;39326;42.650;23.248;2023-07-08T10:44:46;6.05;;;5.65;;
53040;SDS011;39326;42.650;23.248;2023-07-08T10:50:25;4.88;;;4.57;;
53040;SDS011;39326;42.650;23.248;2023-07-08T11:02:02;4.47;;;4.18;;
53040;SDS011;39326;42.650;23.248;2023-07-08T11:04:38;5.10;;;4.70;;
53040;SDS011;39326;42.650;23.248;2023-07-08T11:09:56;4.55;;;4.25;;
53040;SDS011;39326;42.650;23.248;2023-07-08T11:12:36;5.07;;;4.63;;
53040;SDS011;39326;42.650;23.248;2023-07-08T11:17:38;5.05;;;4.63;;
53040;SDS011;39326;42.650;23.248;2023-07-08T11:22:46;4.80;;;4.43;;
53040;SDS011;39326;42.650;23.248;2023-07-08T11:25:18;4.93;;;4.63;;
53040;SDS011;39326;42.650;23.248;2023-07-08T11:27:46;4.60;;;4.20;;
53040;SDS011;39326;42.650;23.248;2023-07-08T11:30:19;6.28;;;5.15;;
53040;SDS011;39326;42.650;23.248;2023-07-08T11:32:52;4.93;;;4.57;;
53040;SDS011;39326;42.650;23.248;2023-07-08T11:35:32;4.97;;;4.57;;
53040;SDS011;39326;42.650;23.248;2023-07-08T11:37:58;5.35;;;4.95;;
53040;SDS011;39326;42.650;23.248;2023-07-08T11:40:25;4.60;;;4.30;;
53040;SDS011;39326;42.650;23.248;2023-07-08T11:42:52;5.13;;;4.72;;
53040;SDS011;39326;42.650;23.248;2023-07-08T11:45:27;5.30;;;4.80;;
53040;SDS011;39326;42.650;23.248;2023-07-08T11:48:03;4.60;;;4.20;;
53040;SDS011;39326;42.650;23.248;2023-07-08T11:50:35;5.78;;;4.47;;
53040;SDS011;39326;42.650;23.248;2023-07-08T11:53:06;4.60;;;4.30;;
53040;SDS011;39326;42.650;23.248;2023-07-08T11:55:56;4.32;;;4.03;;
53040;SDS011;39326;42.650;23.248;2023-07-08T12:01:03;4.22;;;3.92;;
53040;SDS011;39326;42.650;23.248;2023-07-08T12:03:51;4.53;;;4.22;;
53040;SDS011;39326;42.650;23.248;2023-07-08T12:08:52;4.30;;;3.95;;
53040;SDS011;39326;42.650;23.248;2023-07-08T12:11:18;4.20;;;3.90;;
53040;SDS011;39326;42.650;23.248;2023-07-08T12:13:54;4.07;;;3.85;;
53040;SDS011;39326;42.650;23.248;2023-07-08T12:16:22;4.55;;;4.10;;
53040;SDS011;39326;42.650;23.248;2023-07-08T12:18:48;4.22;;;3.92;;
53040;SDS011;39326;42.650;23.248;2023-07-08T12:21:14;4.13;;;3.72;;
53040;SDS011;39326;42.650;23.248;2023-07-08T12:23:44;4.63;;;4.32;;
53040;SDS011;39326;42.650;23.248;2023-07-08T12:26:11;4.38;;;3.97;;
53040;SDS011;39326;42.650;23.248;2023-07-08T12:28:37;4.07;;;3.83;;
53040;SDS011;39326;42.650;23.248;2023-07-08T12:31:09;4.20;;;3.90;;
53040;SDS011;39326;42.650;23.248;2023-07-08T12:33:40;4.35;;;4.05;;
53040;SDS011;39326;42.650;23.248;2023-07-08T12:36:06;4.18;;;3.88;;
53040;SDS011;39326;42.650;23.248;2023-07-08T12:38:40;3.47;;;3.05;;
53040;SDS011;39326;42.650;23.248;2023-07-08T12:41:09;4.03;;;3.65;;
53040;SDS011;39326;42.650;23.248;2023-07-08T12:43:39;4.82;;;4.13;;
53040;SDS011;39326;42.650;23.248;2023-07-08T12:46:05;3.97;;;3.67;;
53040;SDS011;39326;42.650;23.248;2023-07-08T12:48:39;4.22;;;3.92;;
53040;SDS011;39326;42.650;23.248;2023-07-08T12:51:06;4.00;;;3.60;;
53040;SDS011;39326;42.650;23.248;2023-07-08T12:53:36;4.32;;;4.03;;
53040;SDS011;39326;42.650;23.248;2023-07-08T12:56:02;4.30;;;3.90;;
53040;SDS011;39326;42.650;23.248;2023-07-08T12:58:29;3.80;;;3.50;;
53040;SDS011;39326;42.650;23.248;2023-07-08T13:00:57;4.35;;;3.95;;
53040;SDS011;39326;42.650;23.248;2023-07-08T13:03:28;4.63;;;3.72;;
53040;SDS011;39326;42.650;23.248;2023-07-08T13:05:56;3.45;;;3.22;;
53040;SDS011;39326;42.650;23.248;2023-07-08T13:08:24;4.25;;;3.95;;
53040;SDS011;39326;42.650;23.248;2023-07-08T13:10:54;4.10;;;3.80;;
53040;SDS011;39326;42.650;23.248;2023-07-08T13:13:27;3.90;;;3.60;;
53040;SDS011;39326;42.650;23.248;2023-07-08T13:15:56;3.83;;;3.53;;
53040;SDS011;39326;42.650;23.248;2023-07-08T13:18:56;3.60;;;3.30;;
53040;SDS011;39326;42.650;23.248;2023-07-08T13:21:15;4.10;;;3.42;;
53040;SDS011;39326;42.650;23.248;2023-07-08T13:23:42;4.22;;;3.85;;
53040;SDS011;39326;42.650;23.248;2023-07-08T13:26:12;3.95;;;3.55;;
53040;SDS011;39326;42.650;23.248;2023-07-08T13:28:43;4.65;;;3.58;;
53040;SDS011;39326;42.650;23.248;2023-07-08T13:31:21;3.47;;;3.15;;
53040;SDS011;39326;42.650;23.248;2023-07-08T13:33:49;4.35;;;3.38;;
53040;SDS011;39326;42.650;23.248;2023-07-08T13:36:18;3.65;;;3.35;;
53040;SDS011;39326;42.650;23.248;2023-07-08T13:38:48;3.90;;;3.55;;
53040;SDS011;39326;42.650;23.248;2023-07-08T13:41:19;4.80;;;3.30;;
53040;SDS011;39326;42.650;23.248;2023-07-08T13:43:48;4.75;;;3.58;;
53040;SDS011;39326;42.650;23.248;2023-07-08T13:49:10;3.40;;;3.10;;
53040;SDS011;39326;42.650;23.248;2023-07-08T13:54:53;3.88;;;3.58;;
53040;SDS011;39326;42.650;23.248;2023-07-08T13:57:31;3.95;;;3.33;;
53040;SDS011;39326;42.650;23.248;2023-07-08T13:59:59;3.58;;;3.28;;
53040;SDS011;39326;42.650;23.248;2023-07-08T14:02:27;3.78;;;3.47;;
53040;SDS011;39326;42.650;23.248;2023-07-08T14:04:56;3.47;;;3.28;;
53040;SDS011;39326;42.650;23.248;2023-07-08T14:07:24;3.38;;;3.17;;
53040;SDS011;39326;42.650;23.248;2023-07-08T14:09:55;3.63;;;3.33;;
53040;SDS011;39326;42.650;23.248;2023-07-08T14:12:22;3.53;;;3.22;;
53040;SDS011;39326;42.650;23.248;2023-07-08T14:14:49;3.67;;;3.38;;
53040;SDS011;39326;42.650;23.248;2023-07-08T14:17:19;3.42;;;3.13;;
53040;SDS011;39326;42.650;23.248;2023-07-08T14:19:51;3.72;;;3.17;;
53040;SDS011;39326;42.650;23.248;2023-07-08T14:22:22;3.63;;;3.33;;
53040;SDS011;39326;42.650;23.248;2023-07-08T14:24:50;4.15;;;3.47;;
53040;SDS011;39326;42.650;23.248;2023-07-08T14:27:17;3.20;;;3.00;;
53040;SDS011;39326;42.650;23.248;2023-07-08T14:29:46;3.55;;;3.20;;
53040;SDS011;39326;42.650;23.248;2023-07-08T14:32:18;5.90;;;3.72;;
53040;SDS011;39326;42.650;23.248;2023-07-08T14:34:57;3.55;;;3.25;;
53040;SDS011;39326;42.650;23.248;2023-07-08T14:37:42;3.72;;;3.30;;
53040;SDS011;39326;42.650;23.248;2023-07-08T14:40:17;4.88;;;3.75;;
53040;SDS011;39326;42.650;23.248;2023-07-08T14:42:52;3.42;;;3.13;;
53040;SDS011;39326;42.650;23.248;2023-07-08T14:45:25;3.42;;;3.13;;
53040;SDS011;39326;42.650;23.248;2023-07-08T14:47:51;3.72;;;3.42;;
53040;SDS011;39326;42.650;23.248;2023-07-08T14:50:18;3.50;;;3.20;;
53040;SDS011;39326;42.650;23.248;2023-07-08T14:52:44;3.83;;;3.53;;
53040;SDS011;39326;42.650;23.248;2023-07-08T14:55:12;7.60;;;4.22;;
53040;SDS011;39326;42.650;23.248;2023-07-08T14:57:43;4.22;;;3.83;;
53040;SDS011;39326;42.650;23.248;2023-07-08T15:00:15;3.95;;;3.55;;
53040;SDS011;39326;42.650;23.248;2023-07-08T15:02:45;5.80;;;3.75;;
53040;SDS011;39326;42.650;23.248;2023-07-08T15:05:18;5.78;;;3.75;;
53040;SDS011;39326;42.650;23.248;2023-07-08T15:07:53;5.05;;;4.10;;
53040;SDS011;39326;42.650;23.248;2023-07-08T15:10:23;4.15;;;3.33;;
53040;SDS011;39326;42.650;23.248;2023-07-08T15:12:51;4.30;;;3.55;;
53040;SDS011;39326;42.650;23.248;2023-07-08T15:15:23;5.05;;;4.00;;
53040;SDS011;39326;42.650;23.248;2023-07-08T15:17:55;4.68;;;4.13;;
53040;SDS011;39326;42.650;23.248;2023-07-08T15:20:25;4.10;;;3.70;;
53040;SDS011;39326;42.650;23.248;2023-07-08T15:22:52;4.45;;;3.80;;
53040;SDS011;39326;42.650;23.248;2023-07-08T15:25:19;4.25;;;3.88;;
53040;SDS011;39326;42.650;23.248;2023-07-08T15:27:48;4.55;;;3.83;;
53040;SDS011;39326;42.650;23.248;2023-07-08T15:30:20;4.65;;;4.20;;
53040;SDS011;39326;42.650;23.248;2023-07-08T15:32:52;4.20;;;3.45;;
53040;SDS011;39326;42.650;23.248;2023-07-08T15:35:21;5.05;;;3.92;;
53040;SDS011;39326;42.650;23.248;2023-07-08T15:37:50;4.45;;;3.90;;
53040;SDS011;39326;42.650;23.248;2023-07-08T15:40:19;4.40;;;3.88;;
53040;SDS011;39326;42.650;23.248;2023-07-08T15:42:51;4.50;;;3.75;;
53040;SDS011;39326;42.650;23.248;2023-07-08T15:45:24;4.93;;;4.45;;
53040;SDS011;39326;42.650;23.248;2023-07-08T15:47:52;4.70;;;4.30;;